Time;durP1;ratioP1;P1;durP2;ratioP2;P2;SDS_P1;SDS_P2;PMS_P1;PMS_P2;Temp;Humidity;BMP_temperature;BMP_pressure;BME280_temperature;BME280_humidity;BME280_pressure;Samples;Min_cycle;Max_cycle;Signal;HPM_P1;HPM_P2
2023/09/25 00:00:34;;;;;;;6.47;3.10;;;;;;;;;;5007810;28;20480;-75
2023/09/25 00:03:19;;;;;;;5.28;2.67;;;;;;;;;;5007843;28;20120;-76
2023/09/25 00:06:05;;;;;;;9.07;2.85;;;;;;;;;;5008250;28;20037;-75
2023/09/25 00:08:50;;;;;;;5.38;2.47;;;;;;;;;;5007870;28;20060;-74
2023/09/25 00:11:35;;;;;;;4.32;2.30;;;;;;;;;;5007949;28;20038;-77
2023/09/25 00:14:20;;;;;;;4.65;2.85;;;;;;;;;;5006496;28;20388;-73
2023/09/25 00:17:05;;;;;;;7.55;2.55;;;;;;;;;;5007902;28;20117;-73
2023/09/25 00:19:51;;;;;;;4.13;2.13;;;;;;;;;;5008360;28;20034;-74
2023/09/25 00:22:40;;;;;;;5.68;2.70;;;;;;;;;;5007887;28;20052;-75
2023/09/25 00:25:28;;;;;;;3.00;2.00;;;;;;;;;;5007928;28;20030;-74
2023/09/25 00:28:13;;;;;;;5.22;2.55;;;;;;;;;;5008045;28;20315;-73
2023/09/25 00:30:58;;;;;;;4.22;2.60;;;;;;;;;;5000285;28;20034;-77
2023/09/25 00:33:43;;;;;;;7.53;3.08;;;;;;;;;;5011856;28;20046;-69
2023/09/25 00:36:29;;;;;;;6.70;2.38;;;;;;;;;;5011533;28;20390;-70
2023/09/25 00:39:14;;;;;;;4.07;2.53;;;;;;;;;;5011024;28;20022;-71
2023/09/25 00:41:59;;;;;;;5.13;2.40;;;;;;;;;;5011448;28;20508;-70
2023/09/25 00:44:44;;;;;;;5.40;2.60;;;;;;;;;;5005448;28;20030;-69
2023/09/25 00:47:30;;;;;;;5.28;2.60;;;;;;;;;;5018895;28;20547;-70
2023/09/25 00:50:16;;;;;;;4.38;2.40;;;;;;;;;;5011552;28;20069;-76
2023/09/25 00:53:09;;;;;;;5.65;2.30;;;;;;;;;;5000032;28;20088;-77
2023/09/25 00:55:54;;;;;;;4.55;2.20;;;;;;;;;;5009377;28;20113;-78
2023/09/25 00:58:40;;;;;;;5.82;2.50;;;;;;;;;;4997821;28;20184;-77
2023/09/25 01:01:25;;;;;;;5.97;2.53;;;;;;;;;;5011655;28;20421;-77
2023/09/25 01:04:10;;;;;;;6.28;2.78;;;;;;;;;;5011963;28;20036;-79
2023/09/25 01:06:55;;;;;;;3.65;2.10;;;;;;;;;;5011951;28;20036;-76
2023/09/25 01:09:41;;;;;;;4.60;2.40;;;;;;;;;;4998124;28;20041;-80
2023/09/25 01:12:27;;;;;;;3.03;2.08;;;;;;;;;;5012585;28;20401;-80
2023/09/25 01:15:13;;;;;;;4.07;2.28;;;;;;;;;;5013666;28;20052;-80
2023/09/25 01:17:59;;;;;;;4.50;2.65;;;;;;;;;;5012684;28;20049;-77
2023/09/25 01:20:44;;;;;;;6.03;2.55;;;;;;;;;;5000952;28;20045;-80
2023/09/25 01:23:29;;;;;;;3.80;2.22;;;;;;;;;;5012634;28;20548;-78
2023/09/25 01:26:15;;;;;;;3.80;2.20;;;;;;;;;;5004374;28;20038;-69
2023/09/25 01:29:00;;;;;;;5.78;2.72;;;;;;;;;;5009507;28;20394;-68
2023/09/25 01:31:45;;;;;;;5.30;2.65;;;;;;;;;;5010833;28;20041;-67
2023/09/25 01:34:31;;;;;;;4.93;2.40;;;;;;;;;;5010687;28;20132;-69
2023/09/25 01:37:16;;;;;;;5.97;2.58;;;;;;;;;;5010639;28;20409;-68
2023/09/25 01:40:05;;;;;;;3.63;2.20;;;;;;;;;;5010415;28;20030;-69
2023/09/25 01:42:50;;;;;;;4.43;2.47;;;;;;;;;;5010168;28;20046;-74
2023/09/25 01:45:35;;;;;;;4.50;2.38;;;;;;;;;;5010635;28;20041;-67
2023/09/25 01:48:21;;;;;;;5.30;2.47;;;;;;;;;;5002236;28;20072;-73
2023/09/25 01:51:10;;;;;;;4.25;2.00;;;;;;;;;;5011003;28;20057;-73
2023/09/25 01:53:55;;;;;;;3.97;2.28;;;;;;;;;;5013712;28;20032;-73
2023/09/25 01:56:41;;;;;;;5.30;2.70;;;;;;;;;;5010048;28;20059;-74
2023/09/25 01:59:26;;;;;;;3.38;2.08;;;;;;;;;;4997729;28;20045;-74
2023/09/25 02:02:11;;;;;;;4.47;2.13;;;;;;;;;;5010056;28;20484;-78
2023/09/25 02:04:56;;;;;;;4.07;2.30;;;;;;;;;;5009935;28;20065;-78
2023/09/25 02:07:42;;;;;;;4.38;2.60;;;;;;;;;;4996446;28;20042;-79
2023/09/25 02:10:27;;;;;;;5.57;2.88;;;;;;;;;;5011126;28;20038;-78
2023/09/25 02:13:12;;;;;;;5.10;2.72;;;;;;;;;;5011422;28;20150;-78
2023/09/25 02:15:57;;;;;;;4.00;2.65;;;;;;;;;;5011540;28;20129;-79
2023/09/25 02:18:42;;;;;;;4.45;2.63;;;;;;;;;;5011400;28;20052;-81
2023/09/25 02:21:28;;;;;;;4.63;2.38;;;;;;;;;;5010357;28;20042;-74
2023/09/25 02:24:13;;;;;;;3.67;2.50;;;;;;;;;;5009721;28;20112;-73
2023/09/25 02:26:58;;;;;;;4.65;2.20;;;;;;;;;;4999357;28;20033;-73
2023/09/25 02:29:43;;;;;;;5.68;2.65;;;;;;;;;;5009746;28;20221;-74
2023/09/25 02:32:28;;;;;;;5.72;2.42;;;;;;;;;;5009881;28;20113;-74
2023/09/25 02:35:14;;;;;;;6.32;2.58;;;;;;;;;;5009733;28;20057;-73
2023/09/25 02:37:59;;;;;;;5.93;2.55;;;;;;;;;;5009554;28;20034;-79
2023/09/25 02:40:45;;;;;;;5.13;2.42;;;;;;;;;;5009936;28;20379;-69
2023/09/25 02:43:30;;;;;;;4.72;2.25;;;;;;;;;;5009535;28;20045;-74
2023/09/25 02:46:15;;;;;;;6.88;3.50;;;;;;;;;;5011500;28;20069;-75
2023/09/25 02:49:00;;;;;;;5.10;2.90;;;;;;;;;;4983941;28;20030;-75
2023/09/25 02:51:45;;;;;;;6.63;2.50;;;;;;;;;;5009510;28;20037;-74
2023/09/25 02:54:31;;;;;;;5.90;2.88;;;;;;;;;;5006941;28;20524;-75
2023/09/25 02:57:16;;;;;;;4.43;2.45;;;;;;;;;;5007083;28;20463;-67
2023/09/25 03:00:05;;;;;;;4.03;2.00;;;;;;;;;;5008956;28;20045;-78
2023/09/25 03:02:50;;;;;;;4.50;2.55;;;;;;;;;;4995852;28;20398;-77
2023/09/25 03:05:36;;;;;;;4.60;2.78;;;;;;;;;;5009306;28;20037;-77
2023/09/25 03:08:21;;;;;;;4.85;2.95;;;;;;;;;;5009154;28;20109;-76
2023/09/25 03:11:07;;;;;;;6.75;2.65;;;;;;;;;;5009244;28;20424;-78
2023/09/25 03:13:52;;;;;;;4.65;2.30;;;;;;;;;;5008949;28;20036;-79
2023/09/25 03:16:37;;;;;;;6.75;3.22;;;;;;;;;;5008901;28;20064;-77
2023/09/25 03:19:22;;;;;;;4.30;2.78;;;;;;;;;;5008642;28;20475;-71
2023/09/25 03:22:08;;;;;;;3.85;2.08;;;;;;;;;;5008715;28;20389;-70
2023/09/25 03:24:53;;;;;;;4.32;2.38;;;;;;;;;;4994833;28;20032;-69
2023/09/25 03:27:38;;;;;;;5.45;2.15;;;;;;;;;;5008678;28;20029;-69
2023/09/25 03:30:24;;;;;;;3.35;1.95;;;;;;;;;;5001459;28;20026;-69
2023/09/25 03:33:09;;;;;;;3.00;2.40;;;;;;;;;;5008612;28;20034;-69
2023/09/25 03:35:55;;;;;;;5.25;2.58;;;;;;;;;;5008465;28;20045;-74
2023/09/25 03:38:40;;;;;;;3.63;2.30;;;;;;;;;;4994842;28;20731;-74
2023/09/25 03:41:25;;;;;;;6.13;2.20;;;;;;;;;;4995190;28;20034;-75
2023/09/25 03:44:10;;;;;;;4.82;2.67;;;;;;;;;;5006411;28;20034;-76
2023/09/25 03:46:55;;;;;;;5.70;2.70;;;;;;;;;;5008414;28;20745;-73
2023/09/25 03:49:42;;;;;;;4.88;2.40;;;;;;;;;;5005686;28;20045;-74
2023/09/25 03:52:28;;;;;;;4.32;2.90;;;;;;;;;;5006034;28;20037;-70
2023/09/25 03:55:13;;;;;;;4.90;2.60;;;;;;;;;;5008647;28;20034;-77
2023/09/25 03:57:59;;;;;;;4.50;2.50;;;;;;;;;;5008395;28;20029;-76
2023/09/25 04:00:44;;;;;;;6.93;2.83;;;;;;;;;;4994885;28;20512;-75
2023/09/25 04:03:29;;;;;;;5.93;2.88;;;;;;;;;;5007133;28;20057;-75
2023/09/25 04:06:14;;;;;;;3.97;2.35;;;;;;;;;;4984107;28;20115;-77
2023/09/25 04:09:00;;;;;;;7.93;3.00;;;;;;;;;;5003674;28;20565;-75
2023/09/25 04:11:45;;;;;;;4.25;2.45;;;;;;;;;;4987630;28;20025;-68
2023/09/25 04:14:34;;;;;;;5.88;2.47;;;;;;;;;;5008029;28;20042;-74
2023/09/25 04:17:20;;;;;;;5.72;2.28;;;;;;;;;;5007541;28;20117;-75
2023/09/25 04:20:08;;;;;;;4.88;2.63;;;;;;;;;;5005468;28;20505;-73
2023/09/25 04:22:56;;;;;;;4.38;2.63;;;;;;;;;;4991499;28;20515;-74
2023/09/25 04:25:41;;;;;;;3.38;2.13;;;;;;;;;;5000393;28;20509;-75
2023/09/25 04:28:29;;;;;;;4.63;2.63;;;;;;;;;;5005353;28;20167;-79
2023/09/25 04:31:15;;;;;;;6.07;2.58;;;;;;;;;;5007544;28;20068;-79
2023/09/25 04:34:00;;;;;;;5.70;2.45;;;;;;;;;;5007827;28;20065;-69
2023/09/25 04:36:48;;;;;;;5.95;2.67;;;;;;;;;;5006278;28;20113;-69
2023/09/25 04:39:33;;;;;;;4.97;2.65;;;;;;;;;;4994096;28;20034;-70
2023/09/25 04:42:19;;;;;;;4.95;2.85;;;;;;;;;;5008179;28;20041;-69
2023/09/25 04:45:05;;;;;;;9.02;3.45;;;;;;;;;;5007870;28;20025;-69
2023/09/25 04:47:53;;;;;;;4.82;2.45;;;;;;;;;;5010743;28;20069;-72
2023/09/25 04:50:40;;;;;;;5.07;2.65;;;;;;;;;;4995195;28;20145;-74
2023/09/25 04:53:25;;;;;;;3.97;2.28;;;;;;;;;;5007780;28;20064;-72
2023/09/25 04:56:17;;;;;;;7.32;2.72;;;;;;;;;;5008246;28;20072;-74
2023/09/25 04:59:03;;;;;;;9.60;3.00;;;;;;;;;;5007131;28;20073;-77
2023/09/25 05:01:48;;;;;;;4.75;2.60;;;;;;;;;;5007863;28;20485;-75
2023/09/25 05:04:34;;;;;;;7.53;2.85;;;;;;;;;;5006789;28;20022;-75
2023/09/25 05:07:19;;;;;;;7.82;2.88;;;;;;;;;;5007382;28;20474;-74
2023/09/25 05:10:05;;;;;;;7.15;3.53;;;;;;;;;;5007567;28;20038;-68
2023/09/25 05:12:51;;;;;;;4.90;2.83;;;;;;;;;;5007240;28;20044;-69
2023/09/25 05:15:36;;;;;;;5.53;2.65;;;;;;;;;;5008494;28;20037;-68
2023/09/25 05:18:21;;;;;;;6.72;2.63;;;;;;;;;;5010707;28;20526;-71
2023/09/25 05:21:06;;;;;;;6.53;3.10;;;;;;;;;;5007979;28;20542;-69
2023/09/25 05:23:52;;;;;;;5.97;3.03;;;;;;;;;;5009234;28;20045;-70
2023/09/25 05:26:37;;;;;;;8.52;2.97;;;;;;;;;;5010915;28;20025;-71
2023/09/25 05:29:22;;;;;;;7.10;3.70;;;;;;;;;;5010861;28;20422;-71
2023/09/25 05:32:08;;;;;;;7.65;3.33;;;;;;;;;;5010662;28;20060;-70
2023/09/25 05:34:54;;;;;;;7.88;3.28;;;;;;;;;;4998002;28;20036;-71
2023/09/25 05:37:39;;;;;;;9.63;3.65;;;;;;;;;;5011075;28;20085;-71
2023/09/25 05:40:25;;;;;;;7.20;3.10;;;;;;;;;;5010840;28;20041;-72
2023/09/25 05:43:10;;;;;;;6.30;3.78;;;;;;;;;;5011222;28;20389;-68
2023/09/25 05:45:55;;;;;;;8.48;3.65;;;;;;;;;;4996956;28;20054;-76
2023/09/25 05:48:41;;;;;;;8.43;3.53;;;;;;;;;;4995142;28;20030;-74
2023/09/25 05:51:26;;;;;;;6.20;3.53;;;;;;;;;;5011161;28;20033;-74
2023/09/25 05:54:11;;;;;;;8.60;3.50;;;;;;;;;;5011736;28;20022;-76
2023/09/25 05:56:57;;;;;;;7.90;3.63;;;;;;;;;;5010672;28;20048;-75
2023/09/25 05:59:43;;;;;;;10.85;4.30;;;;;;;;;;5002700;28;20030;-75
2023/09/25 06:02:28;;;;;;;7.75;3.47;;;;;;;;;;5010346;28;20029;-81
2023/09/25 06:05:13;;;;;;;8.57;2.92;;;;;;;;;;5010241;28;20056;-70
2023/09/25 06:07:58;;;;;;;7.82;3.58;;;;;;;;;;5010616;28;20125;-69
2023/09/25 06:10:45;;;;;;;6.18;3.45;;;;;;;;;;5010077;28;20040;-69
2023/09/25 06:13:30;;;;;;;6.93;3.40;;;;;;;;;;5010093;28;20383;-68
2023/09/25 06:16:16;;;;;;;4.22;2.70;;;;;;;;;;5009628;28;20485;-68
2023/09/25 06:19:01;;;;;;;9.63;4.45;;;;;;;;;;5009938;28;20049;-74
2023/09/25 06:21:47;;;;;;;5.07;3.22;;;;;;;;;;5009733;28;20417;-69
2023/09/25 06:24:32;;;;;;;5.63;3.00;;;;;;;;;;4995895;28;20112;-71
2023/09/25 06:27:17;;;;;;;5.72;3.22;;;;;;;;;;5009255;28;20085;-71
2023/09/25 06:30:03;;;;;;;5.25;3.33;;;;;;;;;;5009766;28;20036;-70
2023/09/25 06:32:48;;;;;;;10.90;3.45;;;;;;;;;;5009473;28;20516;-70
2023/09/25 06:35:33;;;;;;;4.85;3.00;;;;;;;;;;5009806;28;20045;-71
2023/09/25 06:38:19;;;;;;;10.05;4.10;;;;;;;;;;5009279;28;20072;-71
2023/09/25 06:41:04;;;;;;;6.00;3.35;;;;;;;;;;4996147;28;20040;-75
2023/09/25 06:43:49;;;;;;;7.35;3.08;;;;;;;;;;5009574;28;20525;-76
2023/09/25 06:46:35;;;;;;;7.50;3.08;;;;;;;;;;5012062;28;20030;-76
2023/09/25 06:49:22;;;;;;;4.45;2.60;;;;;;;;;;5009685;28;20033;-76
2023/09/25 06:52:07;;;;;;;7.75;3.20;;;;;;;;;;5009594;28;20540;-75
2023/09/25 06:54:52;;;;;;;8.38;3.15;;;;;;;;;;5009992;28;20145;-75
2023/09/25 06:57:38;;;;;;;7.35;3.30;;;;;;;;;;5009481;28;20099;-81
2023/09/25 07:00:24;;;;;;;6.05;2.83;;;;;;;;;;5008909;28;20034;-68
2023/09/25 07:03:09;;;;;;;5.88;2.97;;;;;;;;;;5009358;28;20038;-70
2023/09/25 07:05:55;;;;;;;7.10;3.05;;;;;;;;;;5008931;28;20531;-68
2023/09/25 07:08:41;;;;;;;6.22;3.05;;;;;;;;;;5008699;28;20046;-67
2023/09/25 07:11:26;;;;;;;5.93;2.85;;;;;;;;;;4999656;28;20148;-69
2023/09/25 07:14:11;;;;;;;6.78;3.25;;;;;;;;;;5008649;28;20116;-69
2023/09/25 07:16:57;;;;;;;5.82;2.95;;;;;;;;;;5008581;28;20064;-69
2023/09/25 07:19:42;;;;;;;10.35;3.75;;;;;;;;;;4987936;28;20030;-70
2023/09/25 07:22:27;;;;;;;7.38;3.67;;;;;;;;;;4995217;28;20033;-69
2023/09/25 07:25:13;;;;;;;5.32;2.90;;;;;;;;;;4988742;28;20034;-69
2023/09/25 07:27:58;;;;;;;6.68;2.70;;;;;;;;;;4995045;28;20033;-69
2023/09/25 07:30:44;;;;;;;5.80;3.00;;;;;;;;;;5008637;28;20041;-69
2023/09/25 07:33:30;;;;;;;4.80;2.63;;;;;;;;;;5008885;28;20034;-69
2023/09/25 07:36:19;;;;;;;7.60;3.00;;;;;;;;;;5008492;28;20085;-73
2023/09/25 07:39:13;;;;;;;;;;;;;;;;;;5008045;28;20383;-73
2023/09/25 07:41:58;;;;;;;6.80;3.00;;;;;;;;;;5008616;28;19952;-74
2023/09/25 07:44:43;;;;;;;6.22;2.53;;;;;;;;;;5003057;28;20069;-72
2023/09/25 07:47:29;;;;;;;5.57;2.65;;;;;;;;;;5011300;28;20030;-74
2023/09/25 07:50:14;;;;;;;6.57;2.47;;;;;;;;;;5008260;28;20100;-73
2023/09/25 07:52:59;;;;;;;6.95;3.05;;;;;;;;;;5008656;28;20040;-78
2023/09/25 07:55:45;;;;;;;5.53;2.15;;;;;;;;;;5008038;28;20041;-68
2023/09/25 07:58:30;;;;;;;6.82;2.58;;;;;;;;;;5008151;28;20030;-70
2023/09/25 08:01:16;;;;;;;9.60;3.03;;;;;;;;;;5008386;28;20041;-68
2023/09/25 08:04:02;;;;;;;5.35;2.45;;;;;;;;;;5008273;28;20022;-69
2023/09/25 08:06:47;;;;;;;6.45;2.45;;;;;;;;;;5008301;28;20041;-68
2023/09/25 08:09:32;;;;;;;4.57;2.75;;;;;;;;;;5008049;28;20064;-68
2023/09/25 08:12:17;;;;;;;5.13;2.63;;;;;;;;;;5007651;28;20034;-67
2023/09/25 08:15:03;;;;;;;4.38;2.33;;;;;;;;;;5003216;28;20030;-73
2023/09/25 08:17:48;;;;;;;6.00;2.80;;;;;;;;;;5008003;28;20527;-75
2023/09/25 08:20:34;;;;;;;4.95;2.78;;;;;;;;;;5007913;28;20046;-74
2023/09/25 08:23:19;;;;;;;5.75;2.83;;;;;;;;;;5008277;28;20088;-73
2023/09/25 08:26:07;;;;;;;7.15;3.17;;;;;;;;;;5007478;28;20025;-72
2023/09/25 08:28:53;;;;;;;9.93;2.53;;;;;;;;;;5007804;28;20235;-68
2023/09/25 08:31:38;;;;;;;6.05;2.80;;;;;;;;;;4996842;28;20049;-69
2023/09/25 08:34:23;;;;;;;5.55;2.97;;;;;;;;;;4994393;28;20399;-68
2023/09/25 08:37:08;;;;;;;7.65;2.97;;;;;;;;;;5007705;28;20042;-69
2023/09/25 08:39:54;;;;;;;8.10;3.20;;;;;;;;;;5007217;28;20046;-69
2023/09/25 08:42:40;;;;;;;5.65;2.90;;;;;;;;;;5007898;28;20112;-69
2023/09/25 08:45:25;;;;;;;9.55;3.22;;;;;;;;;;5008125;28;20033;-70
2023/09/25 08:48:10;;;;;;;7.15;2.75;;;;;;;;;;5010757;28;20041;-78
2023/09/25 08:50:55;;;;;;;9.15;3.00;;;;;;;;;;4999060;28;20042;-70
2023/09/25 08:53:41;;;;;;;6.53;2.97;;;;;;;;;;5011980;28;20026;-71
2023/09/25 08:56:27;;;;;;;5.90;3.05;;;;;;;;;;5011560;28;20033;-70
2023/09/25 08:59:13;;;;;;;8.95;3.28;;;;;;;;;;5011842;28;20030;-69
2023/09/25 09:01:58;;;;;;;7.43;2.67;;;;;;;;;;5011039;28;20664;-72
2023/09/25 09:04:44;;;;;;;7.25;3.10;;;;;;;;;;4997809;28;20377;-70
2023/09/25 09:07:30;;;;;;;9.48;4.13;;;;;;;;;;5011357;28;20454;-72
2023/09/25 09:10:15;;;;;;;7.80;3.47;;;;;;;;;;5011122;28;20037;-76
2023/09/25 09:13:07;;;;;;;8.68;2.50;;;;;;;;;;4997559;28;20040;-77
2023/09/25 09:15:52;;;;;;;6.70;3.28;;;;;;;;;;5010700;28;20536;-77
2023/09/25 09:18:37;;;;;;;6.95;2.55;;;;;;;;;;5011178;28;20030;-75
2023/09/25 09:21:26;;;;;;;5.30;3.15;;;;;;;;;;5011172;28;20457;-76
2023/09/25 09:24:19;;;;;;;10.23;3.20;;;;;;;;;;5010773;28;20080;-70
2023/09/25 09:27:08;;;;;;;7.13;3.63;;;;;;;;;;5004324;28;20037;-75
2023/09/25 09:29:56;;;;;;;4.77;2.80;;;;;;;;;;4997661;28;20041;-76
2023/09/25 09:32:42;;;;;;;8.63;3.83;;;;;;;;;;5011287;28;20276;-77
2023/09/25 09:35:27;;;;;;;7.53;3.25;;;;;;;;;;5010676;28;20377;-76
2023/09/25 09:38:12;;;;;;;6.65;2.88;;;;;;;;;;5010459;28;20056;-77
2023/09/25 09:40:58;;;;;;;5.15;2.95;;;;;;;;;;5010777;28;20028;-76
2023/09/25 09:43:44;;;;;;;6.68;2.97;;;;;;;;;;4996970;28;20477;-69
2023/09/25 09:46:30;;;;;;;9.85;2.53;;;;;;;;;;5013701;28;20031;-68
2023/09/25 09:49:17;;;;;;;6.53;2.80;;;;;;;;;;5010770;28;20029;-69
2023/09/25 09:52:04;;;;;;;6.05;2.60;;;;;;;;;;5010731;28;20048;-69
2023/09/25 09:54:50;;;;;;;4.88;2.38;;;;;;;;;;5010894;28;20048;-68
2023/09/25 09:57:36;;;;;;;7.38;3.00;;;;;;;;;;4996909;28;20038;-69
2023/09/25 10:00:21;;;;;;;5.90;2.80;;;;;;;;;;5010269;28;20057;-74
2023/09/25 10:03:08;;;;;;;5.30;2.38;;;;;;;;;;4998237;28;20031;-72
2023/09/25 10:05:53;;;;;;;4.93;2.83;;;;;;;;;;4996735;28;20025;-75
2023/09/25 10:08:57;;;;;;;6.30;2.72;;;;;;;;;;4995408;28;20034;-74
2023/09/25 10:11:43;;;;;;;6.75;2.90;;;;;;;;;;5009676;28;20041;-74
2023/09/25 10:14:36;;;;;;;5.15;2.88;;;;;;;;;;5006841;28;20044;-76
2023/09/25 10:17:32;;;;;;;6.55;3.20;;;;;;;;;;5009330;28;20038;-74
2023/09/25 10:20:42;;;;;;;4.70;2.90;;;;;;;;;;5010262;28;20038;-71
2023/09/25 10:23:29;;;;;;;7.32;2.60;;;;;;;;;;5009895;28;20044;-70
2023/09/25 10:26:22;;;;;;;5.55;2.85;;;;;;;;;;5009744;28;20136;-72
2023/09/25 10:29:12;;;;;;;4.20;2.28;;;;;;;;;;5009787;28;20080;-74
2023/09/25 10:32:01;;;;;;;5.75;2.55;;;;;;;;;;5009729;28;20046;-72
2023/09/25 10:34:48;;;;;;;4.63;2.42;;;;;;;;;;4996435;28;20056;-74
2023/09/25 10:37:33;;;;;;;3.42;2.05;;;;;;;;;;5009605;28;20107;-72
2023/09/25 10:40:20;;;;;;;7.85;2.55;;;;;;;;;;5009473;28;20026;-76
2023/09/25 10:43:05;;;;;;;4.85;2.47;;;;;;;;;;5009312;28;20038;-72
2023/09/25 10:45:52;;;;;;;3.92;2.28;;;;;;;;;;5009520;28;20038;-74
2023/09/25 10:48:37;;;;;;;5.90;2.17;;;;;;;;;;5006917;28;20385;-73
2023/09/25 10:51:22;;;;;;;4.55;2.40;;;;;;;;;;5009613;28;20045;-73
2023/09/25 10:54:08;;;;;;;3.97;2.25;;;;;;;;;;4998519;28;20461;-75
2023/09/25 10:56:53;;;;;;;3.88;2.35;;;;;;;;;;5009026;28;20420;-79
2023/09/25 10:59:38;;;;;;;6.13;2.42;;;;;;;;;;5000695;28;20103;-74
2023/09/25 11:02:24;;;;;;;6.88;2.53;;;;;;;;;;5009088;28;20087;-75
2023/09/25 11:05:10;;;;;;;5.30;2.15;;;;;;;;;;5009267;28;20026;-75
2023/09/25 11:07:56;;;;;;;5.07;2.72;;;;;;;;;;5008528;28;20037;-74
2023/09/25 11:10:41;;;;;;;5.70;2.30;;;;;;;;;;5008837;28;20041;-73
2023/09/25 11:13:27;;;;;;;4.93;2.35;;;;;;;;;;4995130;28;20040;-73
2023/09/25 11:16:12;;;;;;;3.10;1.98;;;;;;;;;;4996820;28;20121;-79
2023/09/25 11:19:07;;;;;;;5.63;2.60;;;;;;;;;;5008953;28;20481;-70
2023/09/25 11:21:55;;;;;;;4.82;2.42;;;;;;;;;;5009175;28;20042;-72
2023/09/25 11:24:40;;;;;;;3.35;2.55;;;;;;;;;;5008805;28;20030;-71
2023/09/25 11:27:25;;;;;;;3.65;2.20;;;;;;;;;;5008593;28;20565;-70
2023/09/25 11:30:11;;;;;;;4.55;2.40;;;;;;;;;;4999918;28;20437;-70
2023/09/25 11:32:57;;;;;;;5.20;2.05;;;;;;;;;;5008612;28;20041;-77
2023/09/25 11:35:43;;;;;;;7.00;2.42;;;;;;;;;;5008483;28;20041;-69
2023/09/25 11:38:29;;;;;;;5.00;2.33;;;;;;;;;;5008327;28;20112;-70
2023/09/25 11:41:15;;;;;;;4.45;2.35;;;;;;;;;;5008398;28;20038;-70
2023/09/25 11:44:01;;;;;;;2.92;1.92;;;;;;;;;;4997191;28;20120;-70
2023/09/25 11:46:47;;;;;;;4.65;2.20;;;;;;;;;;5011467;28;20044;-68
2023/09/25 11:49:32;;;;;;;4.60;2.17;;;;;;;;;;5008640;28;20042;-69
2023/09/25 11:52:18;;;;;;;4.53;2.20;;;;;;;;;;5008536;28;20531;-73
2023/09/25 11:55:04;;;;;;;3.17;2.13;;;;;;;;;;5007140;28;20124;-75
2023/09/25 11:57:50;;;;;;;4.82;2.35;;;;;;;;;;4998865;28;20543;-74
2023/09/25 12:00:35;;;;;;;5.65;2.08;;;;;;;;;;4994539;28;20029;-74
2023/09/25 12:03:20;;;;;;;5.40;2.20;;;;;;;;;;5008697;28;20112;-74
2023/09/25 12:06:06;;;;;;;6.68;2.35;;;;;;;;;;5008112;28;20473;-75
2023/09/25 12:08:51;;;;;;;5.03;2.72;;;;;;;;;;5008222;28;20033;-79
2023/09/25 12:11:37;;;;;;;7.05;2.83;;;;;;;;;;5008487;28;20040;-68
2023/09/25 12:14:23;;;;;;;5.47;2.50;;;;;;;;;;4994344;28;20096;-78
2023/09/25 12:17:08;;;;;;;3.85;1.98;;;;;;;;;;5008674;28;20085;-79
2023/09/25 12:19:54;;;;;;;4.20;2.13;;;;;;;;;;5006115;28;20548;-79
2023/09/25 12:22:44;;;;;;;4.40;2.50;;;;;;;;;;4992140;28;20029;-79
2023/09/25 12:25:29;;;;;;;4.05;2.47;;;;;;;;;;5004310;28;20042;-79
2023/09/25 12:28:14;;;;;;;6.22;2.35;;;;;;;;;;5003537;28;20366;-73
2023/09/25 12:30:59;;;;;;;3.20;1.73;;;;;;;;;;5014692;28;20026;-77
2023/09/25 12:33:45;;;;;;;3.17;1.90;;;;;;;;;;5014798;28;20084;-77
2023/09/25 12:36:30;;;;;;;3.72;2.05;;;;;;;;;;5014407;28;20026;-76
2023/09/25 12:39:16;;;;;;;5.47;2.40;;;;;;;;;;5014644;28;20042;-77
2023/09/25 12:42:02;;;;;;;6.35;2.60;;;;;;;;;;5001061;28;20134;-77
2023/09/25 12:44:47;;;;;;;4.97;2.10;;;;;;;;;;5014498;28;20540;-76
2023/09/25 12:47:33;;;;;;;3.45;2.00;;;;;;;;;;5016105;28;20034;-75
2023/09/25 12:50:21;;;;;;;2.90;2.00;;;;;;;;;;5000069;28;20124;-73
2023/09/25 12:53:06;;;;;;;3.03;2.10;;;;;;;;;;5014475;28;20033;-73
2023/09/25 12:55:51;;;;;;;5.65;2.20;;;;;;;;;;5014047;28;20100;-73
2023/09/25 12:58:37;;;;;;;3.67;1.80;;;;;;;;;;5014147;28;20041;-73
2023/09/25 13:01:23;;;;;;;3.75;2.05;;;;;;;;;;5014496;28;20032;-75
2023/09/25 13:04:08;;;;;;;3.00;1.75;;;;;;;;;;5014406;28;20030;-75
2023/09/25 13:06:54;;;;;;;5.93;2.13;;;;;;;;;;5013926;28;20486;-71
2023/09/25 13:09:40;;;;;;;3.20;1.70;;;;;;;;;;5000189;28;20030;-69
2023/09/25 13:12:25;;;;;;;2.25;1.48;;;;;;;;;;5013646;28;20484;-69
2023/09/25 13:15:11;;;;;;;2.60;1.77;;;;;;;;;;5013652;28;20052;-70
2023/09/25 13:17:56;;;;;;;3.63;1.77;;;;;;;;;;5014042;28;20026;-68
2023/09/25 13:20:42;;;;;;;3.88;1.92;;;;;;;;;;5010208;28;20134;-69
2023/09/25 13:23:27;;;;;;;4.40;2.00;;;;;;;;;;5013601;28;20038;-69
2023/09/25 13:26:12;;;;;;;4.35;1.70;;;;;;;;;;5013272;28;20026;-70
2023/09/25 13:28:57;;;;;;;3.58;2.10;;;;;;;;;;5014011;28;20044;-68
2023/09/25 13:31:42;;;;;;;9.90;1.73;;;;;;;;;;5013973;28;20033;-69
2023/09/25 13:34:28;;;;;;;4.50;2.08;;;;;;;;;;5013773;28;20045;-68
2023/09/25 13:37:13;;;;;;;3.40;2.13;;;;;;;;;;5011929;28;20032;-69
2023/09/25 13:39:59;;;;;;;2.75;1.63;;;;;;;;;;5010856;28;20071;-69
2023/09/25 13:42:47;;;;;;;4.20;1.73;;;;;;;;;;5010665;28;20062;-70
2023/09/25 13:45:33;;;;;;;2.63;1.58;;;;;;;;;;5010891;28;20084;-75
2023/09/25 13:48:18;;;;;;;5.88;2.20;;;;;;;;;;5013425;28;20405;-74
2023/09/25 13:51:04;;;;;;;3.80;2.30;;;;;;;;;;5010866;28;20389;-73
2023/09/25 13:53:49;;;;;;;2.47;1.63;;;;;;;;;;5011519;28;20119;-73
2023/09/25 13:56:37;;;;;;;3.83;2.13;;;;;;;;;;4996555;28;20041;-74
2023/09/25 13:59:22;;;;;;;4.47;2.00;;;;;;;;;;5010457;28;20113;-76
2023/09/25 14:02:07;;;;;;;3.42;1.83;;;;;;;;;;5010350;28;20084;-69
2023/09/25 14:04:52;;;;;;;3.05;1.60;;;;;;;;;;5010643;28;20120;-77
2023/09/25 14:07:38;;;;;;;3.42;1.80;;;;;;;;;;5010953;28;20179;-75
2023/09/25 14:10:23;;;;;;;3.20;2.05;;;;;;;;;;5009894;28;20509;-77
2023/09/25 14:13:09;;;;;;;3.33;2.00;;;;;;;;;;5010365;28;20026;-77
2023/09/25 14:15:54;;;;;;;4.30;1.83;;;;;;;;;;4996178;28;20069;-79
2023/09/25 14:18:40;;;;;;;2.92;2.00;;;;;;;;;;4996266;28;20466;-76
2023/09/25 14:21:25;;;;;;;5.28;2.03;;;;;;;;;;5010078;28;20034;-71
2023/09/25 14:24:10;;;;;;;3.33;1.70;;;;;;;;;;4995881;28;20030;-73
2023/09/25 14:27:00;;;;;;;4.28;2.22;;;;;;;;;;5001930;28;20034;-70
2023/09/25 14:29:45;;;;;;;5.90;2.03;;;;;;;;;;5007086;28;20501;-71
2023/09/25 14:32:30;;;;;;;3.33;1.85;;;;;;;;;;5009910;28;20056;-70
2023/09/25 14:35:16;;;;;;;3.92;1.83;;;;;;;;;;5009702;28;20042;-69
2023/09/25 14:38:01;;;;;;;2.45;1.58;;;;;;;;;;5009817;28;20057;-70
2023/09/25 14:40:47;;;;;;;4.80;1.83;;;;;;;;;;5008764;28;20473;-66
2023/09/25 14:43:32;;;;;;;3.75;1.83;;;;;;;;;;4993232;28;20029;-69
2023/09/25 14:46:17;;;;;;;3.15;1.88;;;;;;;;;;5010384;28;20280;-70
2023/09/25 14:49:03;;;;;;;2.45;1.75;;;;;;;;;;5005915;28;20069;-70
2023/09/25 14:51:51;;;;;;;2.05;1.58;;;;;;;;;;4995762;28;20041;-68
2023/09/25 14:54:36;;;;;;;2.85;1.90;;;;;;;;;;5009412;28;20044;-76
2023/09/25 14:57:22;;;;;;;3.17;2.13;;;;;;;;;;5009015;28;20084;-69
2023/09/25 15:00:09;;;;;;;3.28;1.90;;;;;;;;;;5008871;28;20056;-76
2023/09/25 15:02:57;;;;;;;2.25;1.58;;;;;;;;;;5009160;28;20068;-75
2023/09/25 15:05:43;;;;;;;4.28;2.22;;;;;;;;;;5009119;28;20061;-76
2023/09/25 15:08:28;;;;;;;2.80;1.50;;;;;;;;;;5009140;28;20042;-74
2023/09/25 15:11:13;;;;;;;1.65;1.50;;;;;;;;;;5008851;28;20072;-75
2023/09/25 15:13:59;;;;;;;2.40;1.70;;;;;;;;;;4985369;28;20056;-78
2023/09/25 15:16:44;;;;;;;2.78;1.50;;;;;;;;;;5008929;28;20057;-68
2023/09/25 15:19:29;;;;;;;3.85;1.70;;;;;;;;;;5009306;28;20041;-69
2023/09/25 15:22:14;;;;;;;2.13;1.77;;;;;;;;;;5008649;28;20064;-68
2023/09/25 15:24:59;;;;;;;4.45;2.58;;;;;;;;;;5008585;28;20038;-69
2023/09/25 15:27:46;;;;;;;3.05;2.10;;;;;;;;;;5008116;28;20570;-69
2023/09/25 15:30:31;;;;;;;2.72;1.60;;;;;;;;;;5008865;28;20038;-71
2023/09/25 15:33:16;;;;;;;3.95;1.80;;;;;;;;;;5009026;28;20029;-70
2023/09/25 15:36:01;;;;;;;4.53;1.90;;;;;;;;;;5008677;28;20042;-68
2023/09/25 15:38:46;;;;;;;4.45;2.53;;;;;;;;;;5008385;28;20461;-70
2023/09/25 15:41:32;;;;;;;3.67;2.55;;;;;;;;;;5008160;28;20037;-69
2023/09/25 15:44:17;;;;;;;6.53;2.08;;;;;;;;;;5008643;28;20022;-67
2023/09/25 15:47:02;;;;;;;2.95;1.77;;;;;;;;;;5011527;28;20327;-68
2023/09/25 15:49:48;;;;;;;4.47;1.90;;;;;;;;;;5007993;28;20393;-79
2023/09/25 15:52:33;;;;;;;3.10;1.92;;;;;;;;;;5008522;28;20059;-69
2023/09/25 15:55:19;;;;;;;4.85;2.10;;;;;;;;;;5009047;28;20041;-73
2023/09/25 15:58:06;;;;;;;6.72;2.30;;;;;;;;;;5008296;28;20433;-74
2023/09/25 16:00:51;;;;;;;4.47;2.13;;;;;;;;;;4994640;28;20026;-74
2023/09/25 16:03:37;;;;;;;5.43;1.88;;;;;;;;;;5008193;28;20045;-73
2023/09/25 16:06:22;;;;;;;4.93;2.08;;;;;;;;;;5008485;28;20033;-75
2023/09/25 16:09:09;;;;;;;2.97;1.77;;;;;;;;;;5008315;28;20069;-69
2023/09/25 16:11:54;;;;;;;3.90;1.63;;;;;;;;;;5008322;28;20049;-80
2023/09/25 16:14:40;;;;;;;3.35;1.60;;;;;;;;;;4994558;28;20088;-78
2023/09/25 16:17:25;;;;;;;3.85;2.00;;;;;;;;;;4994339;28;20042;-78
2023/09/25 16:20:10;;;;;;;3.15;1.73;;;;;;;;;;5008574;28;20038;-78
2023/09/25 16:22:57;;;;;;;5.45;1.75;;;;;;;;;;5007933;28;20544;-78
2023/09/25 16:25:43;;;;;;;6.40;1.80;;;;;;;;;;5003399;28;20050;-78
2023/09/25 16:28:29;;;;;;;17.05;10.15;;;;;;;;;;5007914;28;20038;-78
2023/09/25 16:31:14;;;;;;;16.20;11.32;;;;;;;;;;4994097;28;20116;-77
2023/09/25 16:33:59;;;;;;;7.43;4.30;;;;;;;;;;4988335;28;20040;-77